Time;durP1;ratioP1;P1;durP2;ratioP2;P2;SDS_P1;SDS_P2;PMS_P1;PMS_P2;Temp;Humidity;BMP_temperature;BMP_pressure;BME280_temperature;BME280_humidity;BME280_pressure;Samples;Min_cycle;Max_cycle;Signal;HPM_P1;HPM_P2
2022/11/21 00:01:11;;;;;;;23.67;14.68;;;0.50;99.90;;;;;;6244892;22;20458;-89
2022/11/21 00:03:37;;;;;;;25.38;16.00;;;0.10;99.90;;;;;;6244046;22;20019;-89
2022/11/21 00:06:05;;;;;;;25.00;15.68;;;0.40;99.90;;;;;;6245523;22;20069;-89
2022/11/21 00:08:31;;;;;;;23.17;15.35;;;0.60;99.90;;;;;;6245038;22;20016;-89
2022/11/21 00:10:58;;;;;;;25.15;15.38;;;0.50;99.90;;;;;;6244667;22;20344;-89
2022/11/21 00:13:28;;;;;;;22.63;14.60;;;0.50;99.90;;;;;;6270026;22;20023;-89
2022/11/21 00:15:54;;;;;;;19.85;13.02;;;0.50;99.90;;;;;;6244510;22;20829;-88
2022/11/21 00:18:19;;;;;;;22.65;14.20;;;1.30;99.90;;;;;;6244552;22;20090;-89
2022/11/21 00:20:45;;;;;;;21.33;14.82;;;0.50;99.90;;;;;;6244818;22;20019;-89
2022/11/21 00:23:11;;;;;;;23.23;15.38;;;0.30;99.90;;;;;;6296542;22;20020;-89
2022/11/21 00:25:40;;;;;;;26.00;15.77;;;0.70;99.90;;;;;;6269330;22;20016;-89
2022/11/21 00:28:05;;;;;;;24.60;15.55;;;0.30;99.90;;;;;;6244971;22;20049;-88
2022/11/21 00:30:31;;;;;;;21.15;13.93;;;0.30;99.90;;;;;;6244493;22;20030;-89
2022/11/21 00:33:00;;;;;;;23.90;14.95;;;0.30;99.90;;;;;;6244094;22;20016;-90
2022/11/21 00:35:26;;;;;;;22.48;15.35;;;0.30;99.90;;;;;;6244984;22;20008;-88
2022/11/21 00:37:52;;;;;;;22.33;15.35;;;1.10;99.90;;;;;;6296450;22;20400;-88
2022/11/21 00:40:18;;;;;;;23.25;15.38;;;0.10;99.90;;;;;;6244916;22;20035;-89
2022/11/21 00:42:44;;;;;;;24.20;15.68;;;0.10;99.90;;;;;;6246530;22;20095;-89
2022/11/21 00:45:10;;;;;;;27.75;16.35;;;0.10;99.90;;;;;;6250100;22;20077;-90
2022/11/21 00:47:36;;;;;;;22.20;14.68;;;1.00;99.90;;;;;;6301575;22;20054;-89
2022/11/21 00:50:02;;;;;;;23.77;15.07;;;1.40;99.90;;;;;;6300679;22;20015;-89
2022/11/21 00:52:28;;;;;;;24.40;15.98;;;0.10;99.90;;;;;;6249298;22;20026;-89
2022/11/21 00:54:53;;;;;;;22.75;15.32;;;0.00;99.90;;;;;;6249727;22;20082;-89
2022/11/21 00:57:21;;;;;;;22.25;15.07;;;-0.10;99.90;;;;;;6249611;22;20023;-89
2022/11/21 00:59:47;;;;;;;25.98;15.05;;;0.00;99.90;;;;;;6249885;22;20068;-89
2022/11/21 01:02:13;;;;;;;21.75;14.30;;;-0.50;99.90;;;;;;6249213;22;20406;-89
2022/11/21 01:04:38;;;;;;;23.63;16.33;;;0.00;99.90;;;;;;6250639;22;20015;-89
2022/11/21 01:07:06;;;;;;;25.60;17.40;;;0.90;99.90;;;;;;6300175;22;20019;-89
2022/11/21 01:09:32;;;;;;;24.00;15.45;;;-0.30;99.90;;;;;;6250857;22;20472;-88
2022/11/21 01:12:03;;;;;;;25.52;15.30;;;-0.50;99.90;;;;;;6250279;22;20396;-89
2022/11/21 01:14:43;;;;;;;21.90;15.52;;;;;;;;;;6249562;22;20011;-89
2022/11/21 01:17:08;;;;;;;23.85;15.95;;;-0.50;99.90;;;;;;6249560;22;20025;-90
2022/11/21 01:19:37;;;;;;;21.95;14.70;;;-0.60;99.90;;;;;;6250430;22;20015;-90
2022/11/21 01:22:05;;;;;;;25.77;16.83;;;-0.70;99.90;;;;;;6249674;22;20076;-89
2022/11/21 01:27:29;;;;;;;18.15;12.38;;;-0.80;99.90;;;;;;6198644;22;20019;-90
2022/11/21 01:29:57;;;;;;;;;;;-0.70;99.90;;;;;;6251701;22;20050;-89
2022/11/21 01:39:12;;;;;;;;;;;;;;;;;;;;;
2022/11/21 01:43:14;;;;;;;;;;;;;;;;;;;;;
2022/11/21 01:46:13;;;;;;;27.70;18.27;;;-0.30;99.90;;;;;;6168068;22;20102;-89
2022/11/21 01:49:56;;;;;;;26.08;17.48;;;-1.50;99.90;;;;;;6247822;22;20034;-89
2022/11/21 02:00:38;;;;;;;;;;;;;;;;;;;;;
2022/11/21 02:09:05;;;;;;;;;;;;;;;;;;;;;
2022/11/21 02:13:33;;;;;;;;;;;;;;;;;;;;;
2022/11/21 02:31:15;;;;;;;29.15;18.42;;;-2.20;99.90;;;;;;6109850;22;20103;-88
2022/11/21 02:38:00;;;;;;;32.00;20.80;;;-1.70;99.90;;;;;;6111770;22;20020;-87
2022/11/21 02:44:35;;;;;;;;;;;;;;;;;;;;;
2022/11/21 02:55:07;;;;;;;33.05;20.58;;;-1.40;99.90;;;;;;6224582;22;20506;-87
2022/11/21 02:57:33;;;;;;;32.42;20.52;;;-1.60;99.90;;;;;;6186591;22;20026;-87
2022/11/21 03:01:00;;;;;;;29.48;18.25;;;-1.60;99.90;;;;;;6226784;22;20020;-88
2022/11/21 03:06:53;;;;;;;32.58;20.05;;;-1.60;99.90;;;;;;6193677;22;20427;-87
2022/11/21 03:12:59;;;;;;;30.88;19.15;;;-1.70;99.90;;;;;;6240623;22;20057;-87
2022/11/21 03:15:54;;;;;;;35.58;20.73;;;-0.20;99.90;;;;;;6244668;22;20027;-87
2022/11/21 03:18:33;;;;;;;29.55;19.23;;;-1.70;99.90;;;;;;6173018;22;20024;-87
2022/11/21 03:21:51;;;;;;;32.35;20.38;;;-0.90;99.90;;;;;;6296200;22;20026;-87
2022/11/21 03:24:34;;;;;;;34.53;21.10;;;-1.50;99.90;;;;;;6269219;22;20030;-86
2022/11/21 03:27:25;;;;;;;32.92;20.77;;;-1.60;99.90;;;;;;6244380;22;20034;-86
2022/11/21 03:29:58;;;;;;;36.70;21.10;;;-1.70;99.90;;;;;;6245023;22;20077;-86
2022/11/21 03:32:41;;;;;;;32.50;21.23;;;-1.30;99.90;;;;;;6295243;22;20022;-86
2022/11/21 03:35:25;;;;;;;32.67;21.10;;;-1.50;99.90;;;;;;6295186;22;20030;-87
2022/11/21 03:37:58;;;;;;;;;;;-1.40;99.90;;;;;;6246383;22;20026;-86
2022/11/21 03:40:26;;;;;;;34.22;21.83;;;-1.30;99.90;;;;;;6245203;22;19919;-85
2022/11/21 03:42:52;;;;;;;36.13;22.00;;;-1.60;99.90;;;;;;6244000;22;20125;-86
2022/11/21 03:45:19;;;;;;;34.13;21.10;;;-1.60;99.90;;;;;;6270508;22;20023;-85
2022/11/21 03:47:53;;;;;;;32.28;19.77;;;-1.70;99.90;;;;;;6244109;22;20358;-85
2022/11/21 03:50:20;;;;;;;32.95;21.15;;;-1.60;99.90;;;;;;6295750;22;20020;-85
2022/11/21 03:52:46;;;;;;;32.80;20.58;;;-1.40;99.90;;;;;;6296287;22;20047;-85
2022/11/21 03:55:14;;;;;;;33.25;21.05;;;-1.70;99.90;;;;;;6243846;22;20042;-84
2022/11/21 03:57:42;;;;;;;32.35;20.05;;;-1.50;99.90;;;;;;6295633;22;20448;-85
2022/11/21 04:00:15;;;;;;;39.25;21.90;;;-1.20;99.90;;;;;;6295981;22;20016;-85
2022/11/21 04:02:41;;;;;;;34.88;21.42;;;-1.50;99.90;;;;;;6267941;22;20562;-85
2022/11/21 04:05:16;;;;;;;32.38;20.60;;;-0.70;99.90;;;;;;6296091;22;20435;-85
2022/11/21 04:07:44;;;;;;;37.70;21.75;;;-1.40;99.90;;;;;;6269491;22;20023;-85
2022/11/21 04:10:19;;;;;;;40.45;24.23;;;-1.50;99.90;;;;;;6243883;22;20027;-84
2022/11/21 04:12:45;;;;;;;38.10;23.15;;;-1.40;99.90;;;;;;6295905;22;20078;-85
2022/11/21 04:15:13;;;;;;;38.58;23.02;;;-1.30;99.90;;;;;;6295527;22;20340;-85
2022/11/21 04:17:41;;;;;;;35.13;21.65;;;0.00;99.90;;;;;;6294106;22;20328;-84
2022/11/21 04:20:14;;;;;;;34.55;21.48;;;-1.30;99.90;;;;;;6244062;22;20034;-84
2022/11/21 04:22:43;;;;;;;40.88;24.55;;;-1.20;99.90;;;;;;6269508;22;20066;-84
2022/11/21 04:25:12;;;;;;;38.97;24.10;;;-1.30;99.90;;;;;;6268274;22;20058;-86
2022/11/21 04:27:40;;;;;;;41.30;24.35;;;-1.30;99.90;;;;;;6243772;22;20019;-84
2022/11/21 04:30:07;;;;;;;39.58;22.40;;;-0.40;99.90;;;;;;6243563;22;20062;-85
2022/11/21 04:32:32;;;;;;;42.45;23.52;;;-1.10;99.90;;;;;;6242463;22;20025;-85
2022/11/21 04:34:58;;;;;;;39.75;23.58;;;-1.10;99.90;;;;;;6243676;22;20091;-85
2022/11/21 04:37:24;;;;;;;36.65;22.00;;;-0.50;99.90;;;;;;6242547;22;20050;-85
2022/11/21 04:39:52;;;;;;;41.35;23.90;;;-1.20;99.90;;;;;;6296274;22;20012;-85
2022/11/21 04:42:18;;;;;;;39.47;22.70;;;-0.10;99.90;;;;;;6268748;22;20034;-84
2022/11/21 04:44:43;;;;;;;35.35;22.75;;;-0.70;99.90;;;;;;6294288;22;20023;-85
2022/11/21 04:47:09;;;;;;;38.70;23.20;;;-0.60;99.90;;;;;;6242785;22;20101;-84
2022/11/21 04:49:37;;;;;;;33.40;20.25;;;-0.20;99.90;;;;;;6269370;22;20475;-84
2022/11/21 04:52:05;;;;;;;36.65;22.45;;;0.40;99.90;;;;;;6293976;22;20094;-85
2022/11/21 04:54:33;;;;;;;37.60;23.27;;;-1.00;99.90;;;;;;6295317;22;20065;-84
2022/11/21 04:57:00;;;;;;;37.35;23.65;;;-1.50;99.90;;;;;;6243502;22;20019;-85
2022/11/21 04:59:28;;;;;;;38.95;23.77;;;-1.00;99.90;;;;;;6293715;22;20097;-84
2022/11/21 05:01:53;;;;;;;39.30;24.30;;;-0.30;99.90;;;;;;6243003;22;20022;-85
2022/11/21 05:04:19;;;;;;;37.80;23.88;;;-1.00;99.90;;;;;;6268749;22;20099;-85
2022/11/21 05:06:45;;;;;;;41.33;23.63;;;-1.50;99.90;;;;;;6242392;22;20090;-84
2022/11/21 05:09:11;;;;;;;38.78;23.05;;;-1.10;99.90;;;;;;6268971;22;20080;-85
2022/11/21 05:14:21;;;;;;;39.75;24.17;;;0.20;99.90;;;;;;6294300;22;20022;-84
2022/11/21 05:16:48;;;;;;;40.45;24.42;;;-1.20;99.90;;;;;;6242328;22;20098;-85
2022/11/21 05:19:14;;;;;;;36.08;22.35;;;-0.20;99.90;;;;;;6243033;22;20012;-85
2022/11/21 05:21:40;;;;;;;37.33;22.75;;;-1.70;99.90;;;;;;6293706;22;20085;-85
2022/11/21 05:24:06;;;;;;;39.55;23.33;;;-0.60;99.90;;;;;;6293812;22;20047;-84
2022/11/21 05:26:32;;;;;;;39.10;23.83;;;-1.30;99.90;;;;;;6267942;22;20024;-84
2022/11/21 05:28:58;;;;;;;33.40;20.83;;;-0.20;99.90;;;;;;6294492;22;20432;-85
2022/11/21 05:31:23;;;;;;;33.97;21.10;;;-1.50;99.90;;;;;;6292794;22;20024;-85
2022/11/21 05:33:49;;;;;;;36.38;21.27;;;-0.20;99.90;;;;;;6268366;22;20020;-85
2022/11/21 05:36:15;;;;;;;38.90;22.80;;;-1.20;99.90;;;;;;6293716;22;20026;-84
2022/11/21 05:38:40;;;;;;;36.05;21.77;;;-1.60;99.90;;;;;;6268717;22;20039;-85
2022/11/21 05:41:06;;;;;;;38.63;23.25;;;-1.30;99.90;;;;;;6293672;22;20098;-84
2022/11/21 05:43:45;;;;;;;37.67;22.85;;;-0.60;99.90;;;;;;6243052;22;20023;-84
2022/11/21 05:46:12;;;;;;;36.08;22.02;;;-1.20;99.90;;;;;;6241476;22;20020;-84
2022/11/21 05:48:38;;;;;;;43.40;24.63;;;-1.70;99.90;;;;;;6242456;22;20046;-84
2022/11/21 05:51:04;;;;;;;40.53;23.55;;;-0.80;99.90;;;;;;6294269;22;20019;-85
2022/11/21 05:53:30;;;;;;;34.88;21.85;;;-1.90;99.90;;;;;;6243645;22;20019;-85
2022/11/21 05:55:59;;;;;;;36.85;22.40;;;-1.20;99.90;;;;;;6268290;22;20402;-87
2022/11/21 05:58:25;;;;;;;29.92;18.13;;;-2.00;99.90;;;;;;6268844;22;20094;-84
2022/11/21 06:00:56;;;;;;;37.17;19.70;;;-0.70;99.90;;;;;;6294129;22;20426;-84
2022/11/21 06:03:31;;;;;;;35.75;20.27;;;-2.30;99.90;;;;;;6293620;22;20076;-83
2022/11/21 06:06:12;;;;;;;31.60;19.38;;;-2.20;99.90;;;;;;6268326;22;20094;-84
2022/11/21 06:08:41;;;;;;;35.63;19.42;;;-2.20;99.90;;;;;;6268081;22;20344;-84
2022/11/21 06:11:09;;;;;;;35.28;21.70;;;-1.60;99.90;;;;;;6294843;22;20039;-84
2022/11/21 06:13:35;;;;;;;38.13;21.75;;;-2.50;99.90;;;;;;6243263;22;20016;-85
2022/11/21 06:16:05;;;;;;;35.20;21.98;;;-2.40;99.90;;;;;;6292720;22;20016;-84
2022/11/21 06:18:33;;;;;;;36.05;22.10;;;-2.00;99.90;;;;;;6294423;22;20027;-85
2022/11/21 06:21:02;;;;;;;40.67;24.20;;;0.30;99.90;;;;;;6294420;22;20065;-84
2022/11/21 06:23:28;;;;;;;35.28;22.27;;;-2.30;99.90;;;;;;6293157;22;20027;-84
2022/11/21 06:25:57;;;;;;;43.35;25.33;;;-2.20;99.90;;;;;;6243555;22;20058;-85
2022/11/21 06:28:24;;;;;;;47.83;25.45;;;-1.60;99.90;;;;;;6244357;22;20103;-84
2022/11/21 06:30:50;;;;;;;52.78;24.42;;;-1.90;99.90;;;;;;6294662;22;20021;-84
2022/11/21 06:33:17;;;;;;;42.72;24.60;;;-1.00;99.90;;;;;;6296277;22;20410;-84
2022/11/21 06:35:43;;;;;;;44.22;24.35;;;;;;;;;;6295737;22;20019;-85
2022/11/21 06:38:12;;;;;;;42.72;24.77;;;-2.30;99.90;;;;;;6269658;22;20336;-85
2022/11/21 06:40:38;;;;;;;38.58;23.98;;;-1.20;99.90;;;;;;6244005;22;20015;-84
2022/11/21 06:43:04;;;;;;;42.28;24.65;;;-2.30;99.90;;;;;;6244795;22;20034;-84
2022/11/21 06:45:29;;;;;;;44.00;26.02;;;-2.20;99.90;;;;;;6243928;22;20016;-84
2022/11/21 06:47:55;;;;;;;39.80;24.02;;;-0.20;99.90;;;;;;6295067;22;20018;-85
2022/11/21 06:50:21;;;;;;;40.83;24.27;;;-0.90;99.90;;;;;;6245352;22;20019;-84
2022/11/21 06:52:48;;;;;;;46.47;26.52;;;-2.30;99.90;;;;;;6243984;22;20313;-84
2022/11/21 06:55:13;;;;;;;42.40;24.92;;;-2.30;99.90;;;;;;6270449;22;20042;-84
2022/11/21 06:57:40;;;;;;;43.85;25.27;;;-2.50;99.90;;;;;;6270380;22;20024;-85
2022/11/21 07:00:06;;;;;;;45.33;25.48;;;-2.30;99.90;;;;;;6294750;22;20063;-85
2022/11/21 07:02:32;;;;;;;40.67;23.67;;;-2.40;99.90;;;;;;6297208;22;20363;-85
2022/11/21 07:04:58;;;;;;;33.63;20.45;;;-2.50;99.90;;;;;;6294520;22;20016;-85
2022/11/21 07:07:26;;;;;;;35.50;21.27;;;-1.90;99.90;;;;;;6297884;22;20020;-84
2022/11/21 07:09:51;;;;;;;38.72;22.05;;;-2.50;99.90;;;;;;6272898;22;20024;-85
2022/11/21 07:15:01;;;;;;;38.22;22.40;;;-1.70;99.90;;;;;;6295730;22;20353;-85
2022/11/21 07:17:27;;;;;;;39.70;22.90;;;-1.70;99.90;;;;;;6269221;22;20023;-85
2022/11/21 07:19:53;;;;;;;37.95;22.90;;;-2.80;99.90;;;;;;6294788;22;20022;-86
2022/11/21 07:22:18;;;;;;;40.92;24.15;;;-2.70;99.90;;;;;;6269973;22;20449;-85
2022/11/21 07:24:44;;;;;;;40.15;23.70;;;-2.60;99.90;;;;;;6244416;22;20091;-85
2022/11/21 07:27:10;;;;;;;37.85;23.17;;;-2.60;99.90;;;;;;6294472;22;20023;-85
2022/11/21 07:29:35;;;;;;;39.03;24.08;;;-1.30;99.90;;;;;;6272407;22;20019;-85
2022/11/21 07:32:01;;;;;;;44.00;24.05;;;-2.30;99.90;;;;;;6243003;22;20020;-85
2022/11/21 07:34:27;;;;;;;48.00;24.48;;;-1.00;99.90;;;;;;6294711;22;20444;-85
2022/11/21 07:36:53;;;;;;;45.17;25.58;;;-2.30;99.90;;;;;;6243961;22;20096;-85
2022/11/21 07:39:18;;;;;;;44.53;26.25;;;-2.30;99.90;;;;;;6295384;22;20022;-85
2022/11/21 07:41:44;;;;;;;40.90;24.23;;;-1.60;99.90;;;;;;6268660;22;20031;-84
2022/11/21 07:44:10;;;;;;;42.80;25.33;;;-2.30;99.90;;;;;;6243659;22;20073;-86
2022/11/21 07:46:35;;;;;;;49.30;27.13;;;-2.20;99.90;;;;;;6271121;22;20355;-85
2022/11/21 07:49:01;;;;;;;42.60;25.10;;;-2.40;99.90;;;;;;6294367;22;20019;-87
2022/11/21 07:51:27;;;;;;;53.72;28.33;;;-0.10;99.90;;;;;;6269565;22;20058;-85
2022/11/21 07:53:52;;;;;;;48.65;28.48;;;-1.80;99.90;;;;;;6295925;22;20019;-86
2022/11/21 07:56:18;;;;;;;51.92;28.98;;;-2.00;99.90;;;;;;6242483;22;20015;-86
2022/11/21 07:58:44;;;;;;;55.80;27.92;;;-2.10;99.90;;;;;;6295696;22;20016;-86
2022/11/21 08:01:09;;;;;;;52.25;29.13;;;-0.60;99.90;;;;;;6293433;22;20043;-85
2022/11/21 08:03:35;;;;;;;52.33;29.25;;;-2.10;99.90;;;;;;6269697;22;20015;-85
2022/11/21 08:06:03;;;;;;;51.38;29.02;;;-1.80;99.90;;;;;;6269262;22;20015;-84
2022/11/21 08:08:28;;;;;;;54.22;29.67;;;-1.80;99.90;;;;;;6293858;22;20457;-85
2022/11/21 08:10:54;;;;;;;54.17;30.00;;;-1.80;99.90;;;;;;6244209;22;20022;-85
2022/11/21 08:13:20;;;;;;;55.65;29.45;;;-1.60;99.90;;;;;;6269125;22;20077;-85
2022/11/21 08:15:46;;;;;;;52.25;29.00;;;-1.70;99.90;;;;;;6269330;22;20012;-85
2022/11/21 08:18:14;;;;;;;52.42;28.65;;;-0.50;99.90;;;;;;6244800;22;20098;-86
2022/11/21 08:20:40;;;;;;;57.65;30.55;;;-1.90;99.90;;;;;;6270699;22;20344;-85
2022/11/21 08:23:06;;;;;;;55.20;29.75;;;0.40;99.90;;;;;;6294548;22;20020;-86
2022/11/21 08:25:33;;;;;;;53.75;29.60;;;-0.80;99.90;;;;;;6294766;22;20035;-86
2022/11/21 08:27:59;;;;;;;52.30;30.17;;;-1.50;99.90;;;;;;6270622;22;20066;-85
2022/11/21 08:30:26;;;;;;;54.58;31.27;;;-1.50;99.90;;;;;;6295321;22;20321;-85
2022/11/21 08:32:51;;;;;;;56.45;31.40;;;-1.40;99.90;;;;;;6294305;22;20019;-86
2022/11/21 08:35:17;;;;;;;51.80;30.65;;;-1.10;99.90;;;;;;6243657;22;20470;-86
2022/11/21 08:37:43;;;;;;;56.72;30.42;;;-0.80;99.90;;;;;;6242450;22;20436;-86
2022/11/21 08:40:09;;;;;;;51.38;30.00;;;-0.40;99.90;;;;;;6294858;22;20058;-85
2022/11/21 08:42:36;;;;;;;52.65;30.50;;;-1.10;99.90;;;;;;6294232;22;20054;-85
2022/11/21 08:45:04;;;;;;;49.83;29.63;;;-1.10;99.90;;;;;;6292602;22;20570;-84
2022/11/21 08:47:32;;;;;;;53.05;29.80;;;-1.00;99.90;;;;;;6267435;22;20086;-85
2022/11/21 08:49:58;;;;;;;50.92;29.92;;;-1.00;99.90;;;;;;6294429;22;20444;-86
2022/11/21 08:52:23;;;;;;;52.33;29.85;;;-0.90;99.90;;;;;;6293425;22;20067;-85
2022/11/21 08:54:49;;;;;;;47.88;29.38;;;-1.00;99.90;;;;;;6243739;22;20065;-86
2022/11/21 08:57:17;;;;;;;51.38;29.48;;;-0.80;99.90;;;;;;6295253;22;20024;-85
2022/11/21 08:59:43;;;;;;;54.17;29.92;;;0.70;99.90;;;;;;6293452;22;20077;-85
2022/11/21 09:02:10;;;;;;;48.90;29.75;;;-0.30;99.90;;;;;;6293642;22;20455;-86
2022/11/21 09:04:36;;;;;;;55.85;29.02;;;-0.40;99.90;;;;;;6242357;22;20020;-85
2022/11/21 09:07:03;;;;;;;52.63;31.23;;;-0.40;99.90;;;;;;6242446;22;20023;-86
2022/11/21 09:09:28;;;;;;;49.72;29.00;;;0.70;99.90;;;;;;6269266;22;20030;-86
2022/11/21 09:11:54;;;;;;;47.55;28.73;;;0.40;99.90;;;;;;6266666;22;20403;-86
2022/11/21 09:19:48;;;;;;;47.22;28.50;;;1.00;99.90;;;;;;6292619;22;20081;-85
2022/11/21 09:22:14;;;;;;;46.90;28.83;;;0.00;99.90;;;;;;6292718;22;20019;-87
2022/11/21 09:24:40;;;;;;;43.47;27.50;;;0.00;99.90;;;;;;6295155;22;20329;-87
2022/11/21 09:27:05;;;;;;;44.67;27.23;;;0.10;99.90;;;;;;6294011;22;20046;-87
2022/11/21 09:29:31;;;;;;;41.63;26.35;;;0.10;99.90;;;;;;6268734;22;20043;-91
2022/11/21 09:31:57;;;;;;;43.13;26.85;;;0.20;99.90;;;;;;6243389;22;20344;-87
2022/11/21 09:34:25;;;;;;;44.60;26.38;;;0.40;99.90;;;;;;6294406;22;20336;-89
2022/11/21 09:36:51;;;;;;;48.50;26.48;;;0.40;99.90;;;;;;6244013;22;20447;-88
2022/11/21 09:39:19;;;;;;;45.03;26.63;;;0.30;99.90;;;;;;6295252;22;20038;-88
2022/11/21 09:41:53;;;;;;;40.03;25.88;;;0.30;99.90;;;;;;6302686;22;20011;-88
2022/11/21 09:44:39;;;;;;;48.75;27.92;;;0.40;99.90;;;;;;6245899;22;20150;-89
2022/11/21 09:47:28;;;;;;;44.92;27.25;;;0.50;99.90;;;;;;6243635;22;20022;-89
2022/11/21 09:50:07;;;;;;;41.65;27.20;;;0.50;99.90;;;;;;6245034;22;20020;-89
2022/11/21 09:52:58;;;;;;;44.25;26.92;;;1.20;99.90;;;;;;6243337;22;20023;-88
2022/11/21 09:55:37;;;;;;;45.10;26.48;;;0.50;99.90;;;;;;6242753;22;20030;-88
2022/11/21 09:58:08;;;;;;;43.95;26.23;;;0.60;99.90;;;;;;6295552;22;20077;-90
2022/11/21 10:00:37;;;;;;;41.95;26.63;;;0.30;99.90;;;;;;6245631;22;20090;-88
2022/11/21 10:03:03;;;;;;;43.35;27.02;;;1.70;99.90;;;;;;6244286;22;20352;-88
2022/11/21 10:05:53;;;;;;;48.28;27.20;;;0.70;99.90;;;;;;6245502;22;20019;-88
2022/11/21 10:08:43;;;;;;;47.72;28.02;;;1.10;99.90;;;;;;6231171;22;20019;-89
2022/11/21 10:12:35;;;;;;;40.80;26.50;;;1.70;99.90;;;;;;6245899;22;20149;-88
2022/11/21 10:14:56;;;;;;;47.17;29.02;;;1.00;99.90;;;;;;6269802;22;20024;-88
2022/11/21 10:17:44;;;;;;;42.10;25.65;;;1.10;99.90;;;;;;6245583;22;20023;-89
2022/11/21 10:20:24;;;;;;;39.33;24.42;;;1.10;99.90;;;;;;6246012;22;20026;-88
2022/11/21 10:23:28;;;;;;;38.72;25.23;;;1.10;99.90;;;;;;6245788;22;20016;-89
2022/11/21 10:26:21;;;;;;;37.10;24.52;;;1.20;99.90;;;;;;6213543;22;20012;-89
2022/11/21 10:29:53;;;;;;;;;;;;;;;;;;;;;
2022/11/21 10:32:34;;;;;;;39.05;25.08;;;1.40;99.90;;;;;;6244143;22;20016;-90
2022/11/21 10:35:25;;;;;;;34.25;23.85;;;0.80;99.90;;;;;;6247880;22;20023;-90
2022/11/21 10:38:34;;;;;;;;;;;;;;;;;;;;;
2022/11/21 10:41:40;;;;;;;36.78;23.70;;;1.50;99.90;;;;;;6297483;22;20016;-90
2022/11/21 10:48:27;;;;;;;36.08;23.67;;;1.30;99.90;;;;;;6297210;22;20062;-89
2022/11/21 10:51:19;;;;;;;;;;;;;;;;;;;;;
2022/11/21 10:56:44;;;;;;;;;;;;;;;;;;;;;
2022/11/21 11:00:05;;;;;;;36.33;23.38;;;2.20;99.90;;;;;;6296226;22;20026;-90
2022/11/21 11:03:45;;;;;;;34.80;23.45;;;2.60;99.90;;;;;;6269728;22;20026;-91
2022/11/21 11:06:28;;;;;;;35.63;23.20;;;1.40;99.90;;;;;;6202567;22;20023;-91
2022/11/21 11:10:15;;;;;;;;;;;;;;;;;;;;;
2022/11/21 11:16:05;;;;;;;33.05;22.33;;;1.60;99.90;;;;;;6296548;22;20020;-88
2022/11/21 11:30:08;;;;;;;;;;;;;;;;;;;;;
2022/11/21 11:32:43;;;;;;;29.30;21.38;;;2.30;99.90;;;;;;6170774;22;20023;-90
2022/11/21 11:36:38;;;;;;;;;;;;;;;;;;;;;
2022/11/21 11:39:28;;;;;;;;;;;;;;;;;;;;;
2022/11/21 11:50:26;;;;;;;;;;;;;;;;;;;;;
2022/11/21 11:53:49;;;;;;;22.98;16.13;;;3.10;99.90;;;;;;6118758;23;20026;-93
2022/11/21 11:56:23;;;;;;;24.70;16.23;;;3.10;99.90;;;;;;6095167;23;20021;-88
2022/11/21 11:59:22;;;;;;;23.95;15.90;;;3.10;99.90;;;;;;6123100;23;20028;-92
2022/11/21 12:02:49;;;;;;;24.25;15.73;;;3.10;99.90;;;;;;6085399;23;20021;-92
2022/11/21 12:05:24;;;;;;;25.55;16.55;;;3.10;99.90;;;;;;6103713;22;20109;-91
2022/11/21 12:08:13;;;;;;;24.80;16.35;;;3.50;99.90;;;;;;6243291;22;20015;-92
2022/11/21 12:17:45;;;;;;;31.92;22.80;;;3.30;99.90;;;;;;6243638;22;20452;-89
2022/11/21 12:21:03;;;;;;;24.30;17.05;;;4.20;99.90;;;;;;6245655;22;20019;-91
2022/11/21 12:23:47;;;;;;;;;;;;;;;;;;;;;
2022/11/21 12:26:47;;;;;;;;;;;;;;;;;;;;;
2022/11/21 12:29:41;;;;;;;;;;;;;;;;;;;;;
2022/11/21 12:32:48;;;;;;;22.40;16.17;;;3.10;99.90;;;;;;6271800;22;20019;-93
2022/11/21 12:35:42;;;;;;;27.40;15.85;;;3.10;99.90;;;;;;6246805;22;20388;-93
2022/11/21 12:39:04;;;;;;;25.35;17.10;;;2.30;99.90;;;;;;6246979;22;20003;-93
2022/11/21 12:45:27;;;;;;;;;;;;;;;;;;;;;
2022/11/21 12:54:46;;;;;;;28.08;17.70;;;2.80;99.90;;;;;;6271972;22;20714;-92
2022/11/21 12:57:15;;;;;;;25.23;17.67;;;2.80;99.90;;;;;;6245604;22;20051;-90
2022/11/21 12:59:56;;;;;;;25.30;16.35;;;2.90;99.90;;;;;;6245828;22;20019;-90
2022/11/21 13:02:37;;;;;;;27.77;17.40;;;2.80;99.90;;;;;;6247224;22;20015;-92
2022/11/21 13:05:11;;;;;;;25.35;17.77;;;2.80;99.90;;;;;;6246379;22;20028;-91
2022/11/21 13:07:52;;;;;;;28.05;17.23;;;2.80;99.90;;;;;;6246311;22;20012;-92
2022/11/21 13:10:39;;;;;;;27.50;16.92;;;3.10;99.90;;;;;;6248519;22;20019;-92
2022/11/21 13:14:26;;;;;;;;;;;;;;;;;;;;;
2022/11/21 13:16:47;;;;;;;;;;;;;;;;;;;;;
2022/11/21 13:19:41;;;;;;;25.38;17.02;;;3.70;99.90;;;;;;6300335;22;20026;-94
2022/11/21 13:22:29;;;;;;;;;;;2.90;99.90;;;;;;6251588;22;20026;-91
2022/11/21 13:24:59;;;;;;;24.40;16.30;;;2.80;99.90;;;;;;6244204;22;19988;-92
2022/11/21 13:28:16;;;;;;;;;;;;;;;;;;;;;
2022/11/21 13:31:00;;;;;;;;;;;;;;;;;;;;;
2022/11/21 13:33:33;;;;;;;23.23;14.45;;;3.10;99.90;;;;;;6295590;22;20455;-91
2022/11/21 13:36:12;;;;;;;23.38;15.20;;;3.60;99.90;;;;;;6245218;22;20071;-91
2022/11/21 13:38:57;;;;;;;21.92;14.68;;;2.90;99.90;;;;;;6245332;22;20016;-91
2022/11/21 13:44:30;;;;;;;26.30;18.33;;;2.80;99.90;;;;;;6296891;22;20102;-91
2022/11/21 13:47:01;;;;;;;22.65;14.25;;;2.90;99.90;;;;;;6244344;22;20011;-91
2022/11/21 13:49:45;;;;;;;23.08;14.45;;;3.20;99.90;;;;;;6246201;22;20012;-90
2022/11/21 13:52:30;;;;;;;24.60;15.73;;;4.10;99.90;;;;;;6247295;22;20012;-90
2022/11/21 13:55:06;;;;;;;22.55;14.65;;;2.90;99.90;;;;;;6245515;22;20622;-90
2022/11/21 13:57:48;;;;;;;20.13;14.35;;;2.90;99.90;;;;;;6245553;22;20086;-91
2022/11/21 14:00:41;;;;;;;22.52;14.75;;;2.30;99.90;;;;;;6247474;22;20020;-90
2022/11/21 14:03:11;;;;;;;20.58;13.82;;;3.20;99.90;;;;;;6247876;22;20020;-91
2022/11/21 14:05:42;;;;;;;21.77;14.25;;;2.90;99.90;;;;;;6245836;22;20020;-90
2022/11/21 14:08:16;;;;;;;21.05;14.70;;;3.60;99.90;;;;;;6244904;22;20061;-90
2022/11/21 14:10:44;;;;;;;22.25;14.80;;;3.90;99.90;;;;;;6246252;22;20227;-92
2022/11/21 14:13:21;;;;;;;19.88;13.57;;;3.80;99.90;;;;;;6246615;22;20020;-91
2022/11/21 14:15:59;;;;;;;20.58;13.98;;;3.00;99.90;;;;;;6243546;22;20019;-90
2022/11/21 14:18:28;;;;;;;22.02;14.18;;;3.00;99.90;;;;;;6245888;22;20065;-90
2022/11/21 14:20:59;;;;;;;22.08;14.30;;;3.00;99.90;;;;;;6248937;22;20507;-91
2022/11/21 14:23:36;;;;;;;19.77;13.88;;;3.10;99.90;;;;;;6245454;22;20094;-91
2022/11/21 14:26:17;;;;;;;22.83;14.35;;;3.10;99.90;;;;;;6245645;22;20024;-91
2022/11/21 14:28:45;;;;;;;22.55;14.50;;;4.20;99.90;;;;;;6245505;22;20023;-90
2022/11/21 14:31:14;;;;;;;24.88;16.05;;;3.70;99.90;;;;;;6244840;22;20505;-90
2022/11/21 14:33:45;;;;;;;23.17;16.02;;;3.10;99.90;;;;;;6245956;22;20023;-90
2022/11/21 14:36:22;;;;;;;23.23;15.63;;;4.00;99.90;;;;;;6244847;22;20102;-91
2022/11/21 14:38:58;;;;;;;22.88;15.55;;;3.20;99.90;;;;;;6245260;22;20016;-91
2022/11/21 14:41:27;;;;;;;25.05;15.38;;;3.00;99.90;;;;;;6244833;22;20019;-90
2022/11/21 14:43:57;;;;;;;23.38;16.58;;;3.60;99.90;;;;;;6245524;22;20031;-91
2022/11/21 14:46:44;;;;;;;29.00;17.55;;;3.00;99.90;;;;;;6244318;22;20343;-91
2022/11/21 14:49:14;;;;;;;26.65;17.65;;;3.00;99.90;;;;;;6246348;22;20020;-91
2022/11/21 14:51:43;;;;;;;25.60;17.55;;;4.10;99.90;;;;;;6247284;22;20016;-91
2022/11/21 14:54:19;;;;;;;31.23;19.58;;;3.00;99.90;;;;;;6246989;22;20019;-91
2022/11/21 14:56:55;;;;;;;32.08;20.35;;;4.00;99.90;;;;;;6246434;22;20436;-91
2022/11/21 14:59:27;;;;;;;29.35;18.85;;;4.00;99.90;;;;;;6257609;22;20015;-90
2022/11/21 15:01:58;;;;;;;32.38;18.50;;;3.00;99.90;;;;;;6248214;22;20452;-90
2022/11/21 15:04:30;;;;;;;30.92;19.65;;;2.70;99.90;;;;;;6245985;22;20395;-91
2022/11/21 15:06:56;;;;;;;31.10;19.20;;;3.00;99.90;;;;;;6246964;22;20015;-90
2022/11/21 15:09:30;;;;;;;34.83;19.38;;;3.90;99.90;;;;;;6246728;22;20020;-90
2022/11/21 15:12:29;;;;;;;30.70;18.65;;;3.80;99.90;;;;;;6246029;22;20011;-89
2022/11/21 15:15:16;;;;;;;31.13;19.77;;;3.10;99.90;;;;;;6247520;22;20020;-89
2022/11/21 15:17:47;;;;;;;30.40;20.13;;;3.00;99.90;;;;;;6246879;22;20020;-90
2022/11/21 15:20:13;;;;;;;43.08;21.33;;;2.70;99.90;;;;;;6248213;22;20435;-91
2022/11/21 15:22:41;;;;;;;34.30;20.77;;;3.00;99.90;;;;;;6248923;22;20035;-90
2022/11/21 15:25:59;;;;;;;;;;;;;;;;;;;;;
2022/11/21 15:29:41;;;;;;;;;;;;;;;;;;;;;
2022/11/21 15:31:42;;;;;;;34.05;21.08;;;3.30;99.90;;;;;;6186918;22;20113;-89
2022/11/21 15:34:21;;;;;;;;;;;;;;;;;;;;;
2022/11/21 15:46:13;;;;;;;;;;;;;;;;;;;;;
2022/11/21 15:48:57;;;;;;;;;;;;;;;;;;;;;
2022/11/21 15:51:39;;;;;;;44.35;25.33;;;3.00;99.90;;;;;;6049113;23;20093;-92
2022/11/21 15:54:06;;;;;;;48.40;26.48;;;3.10;99.90;;;;;;6262976;22;20069;-91
2022/11/21 15:56:33;;;;;;;50.08;28.52;;;3.00;99.90;;;;;;6247394;22;20053;-91
2022/11/21 15:59:04;;;;;;;48.92;28.27;;;3.00;99.90;;;;;;6247928;22;20011;-91
2022/11/21 16:01:42;;;;;;;;;;;;;;;;;;;;;
2022/11/21 16:05:33;;;;;;;;;;;;;;;;;;;;;
2022/11/21 16:11:06;;;;;;;;;;;;;;;;;;;;;